sensor_id;sensor_type;location;lat;lon;timestamp;P1;durP1;ratioP1;P2;durP2;ratioP2
813;SDS011;389;48.710;9.392;2022-08-21T00:00:43;7.80;;;6.77;;
813;SDS011;389;48.710;9.392;2022-08-21T00:03:09;8.57;;;7.50;;
813;SDS011;389;48.710;9.392;2022-08-21T00:05:37;7.47;;;6.60;;
813;SDS011;389;48.710;9.392;2022-08-21T00:08:05;9.67;;;7.17;;
813;SDS011;389;48.710;9.392;2022-08-21T00:10:31;12.00;;;7.67;;
813;SDS011;389;48.710;9.392;2022-08-21T00:12:57;8.30;;;7.20;;
813;SDS011;389;48.710;9.392;2022-08-21T00:15:26;7.80;;;6.63;;
813;SDS011;389;48.710;9.392;2022-08-21T00:17:54;10.03;;;6.80;;
813;SDS011;389;48.710;9.392;2022-08-21T00:20:36;9.90;;;7.07;;
813;SDS011;389;48.710;9.392;2022-08-21T00:23:03;10.57;;;7.57;;
813;SDS011;389;48.710;9.392;2022-08-21T00:25:28;9.60;;;6.97;;
813;SDS011;389;48.710;9.392;2022-08-21T00:27:55;12.33;;;6.20;;
813;SDS011;389;48.710;9.392;2022-08-21T00:30:21;11.20;;;6.70;;
813;SDS011;389;48.710;9.392;2022-08-21T00:32:49;7.90;;;6.80;;
813;SDS011;389;48.710;9.392;2022-08-21T00:35:17;8.53;;;6.80;;
813;SDS011;389;48.710;9.392;2022-08-21T00:37:45;9.03;;;7.17;;
813;SDS011;389;48.710;9.392;2022-08-21T00:40:13;9.03;;;7.00;;
813;SDS011;389;48.710;9.392;2022-08-21T00:42:41;10.83;;;6.87;;
813;SDS011;389;48.710;9.392;2022-08-21T00:45:07;10.10;;;7.30;;
813;SDS011;389;48.710;9.392;2022-08-21T00:47:34;7.13;;;6.43;;
813;SDS011;389;48.710;9.392;2022-08-21T00:49:59;10.87;;;7.50;;
813;SDS011;389;48.710;9.392;2022-08-21T00:52:28;11.40;;;7.40;;
813;SDS011;389;48.710;9.392;2022-08-21T00:54:56;12.60;;;6.77;;
813;SDS011;389;48.710;9.392;2022-08-21T00:57:26;10.23;;;6.50;;
813;SDS011;389;48.710;9.392;2022-08-21T01:00:01;7.97;;;6.53;;
813;SDS011;389;48.710;9.392;2022-08-21T01:02:29;10.03;;;7.00;;
813;SDS011;389;48.710;9.392;2022-08-21T01:04:55;10.43;;;7.27;;
813;SDS011;389;48.710;9.392;2022-08-21T01:07:20;12.00;;;7.47;;
813;SDS011;389;48.710;9.392;2022-08-21T01:09:46;8.47;;;6.60;;
813;SDS011;389;48.710;9.392;2022-08-21T01:12:13;8.33;;;7.00;;
813;SDS011;389;48.710;9.392;2022-08-21T01:14:44;9.30;;;6.83;;
813;SDS011;389;48.710;9.392;2022-08-21T01:17:11;9.00;;;6.70;;
813;SDS011;389;48.710;9.392;2022-08-21T01:19:39;9.83;;;7.40;;
813;SDS011;389;48.710;9.392;2022-08-21T01:22:04;10.50;;;7.53;;
813;SDS011;389;48.710;9.392;2022-08-21T01:24:31;14.07;;;7.47;;
813;SDS011;389;48.710;9.392;2022-08-21T01:26:57;13.30;;;7.47;;
813;SDS011;389;48.710;9.392;2022-08-21T01:29:29;10.60;;;6.90;;
813;SDS011;389;48.710;9.392;2022-08-21T01:32:10;10.07;;;6.70;;
813;SDS011;389;48.710;9.392;2022-08-21T01:34:38;11.20;;;7.03;;
813;SDS011;389;48.710;9.392;2022-08-21T01:37:09;11.33;;;7.37;;
813;SDS011;389;48.710;9.392;2022-08-21T01:39:36;10.30;;;7.20;;
813;SDS011;389;48.710;9.392;2022-08-21T01:42:02;11.37;;;7.37;;
813;SDS011;389;48.710;9.392;2022-08-21T01:44:29;9.30;;;7.10;;
813;SDS011;389;48.710;9.392;2022-08-21T01:46:54;14.20;;;7.67;;
813;SDS011;389;48.710;9.392;2022-08-21T01:49:22;10.93;;;8.80;;
813;SDS011;389;48.710;9.392;2022-08-21T01:51:47;14.00;;;6.80;;
813;SDS011;389;48.710;9.392;2022-08-21T01:54:13;9.87;;;7.20;;
813;SDS011;389;48.710;9.392;2022-08-21T01:56:39;9.40;;;7.13;;
813;SDS011;389;48.710;9.392;2022-08-21T01:59:08;9.73;;;6.80;;
813;SDS011;389;48.710;9.392;2022-08-21T02:01:34;10.60;;;7.33;;
813;SDS011;389;48.710;9.392;2022-08-21T02:04:00;9.20;;;7.43;;
813;SDS011;389;48.710;9.392;2022-08-21T02:06:26;9.10;;;7.40;;
813;SDS011;389;48.710;9.392;2022-08-21T02:08:51;14.93;;;7.60;;
813;SDS011;389;48.710;9.392;2022-08-21T02:11:17;10.03;;;7.83;;
813;SDS011;389;48.710;9.392;2022-08-21T02:13:43;12.10;;;7.57;;
813;SDS011;389;48.710;9.392;2022-08-21T02:16:09;8.43;;;7.33;;
813;SDS011;389;48.710;9.392;2022-08-21T02:18:35;10.33;;;7.70;;
813;SDS011;389;48.710;9.392;2022-08-21T02:21:02;11.40;;;7.33;;
813;SDS011;389;48.710;9.392;2022-08-21T02:23:28;9.33;;;7.30;;
813;SDS011;389;48.710;9.392;2022-08-21T02:25:56;11.20;;;8.07;;
813;SDS011;389;48.710;9.392;2022-08-21T02:28:22;9.57;;;7.27;;
813;SDS011;389;48.710;9.392;2022-08-21T02:30:48;11.83;;;7.87;;
813;SDS011;389;48.710;9.392;2022-08-21T02:33:15;11.43;;;8.03;;
813;SDS011;389;48.710;9.392;2022-08-21T02:35:42;11.50;;;7.67;;
813;SDS011;389;48.710;9.392;2022-08-21T02:38:11;10.57;;;7.83;;
813;SDS011;389;48.710;9.392;2022-08-21T02:40:40;9.23;;;7.50;;
813;SDS011;389;48.710;9.392;2022-08-21T02:43:08;10.83;;;7.50;;
813;SDS011;389;48.710;9.392;2022-08-21T02:45:34;10.90;;;7.67;;
813;SDS011;389;48.710;9.392;2022-08-21T02:48:02;8.53;;;6.90;;
813;SDS011;389;48.710;9.392;2022-08-21T02:50:36;10.00;;;7.37;;
813;SDS011;389;48.710;9.392;2022-08-21T02:53:05;12.53;;;8.47;;
813;SDS011;389;48.710;9.392;2022-08-21T02:55:32;11.37;;;9.23;;
813;SDS011;389;48.710;9.392;2022-08-21T02:58:00;10.97;;;8.13;;
813;SDS011;389;48.710;9.392;2022-08-21T03:00:26;10.53;;;8.30;;
813;SDS011;389;48.710;9.392;2022-08-21T03:02:54;12.70;;;8.90;;
813;SDS011;389;48.710;9.392;2022-08-21T03:05:21;12.10;;;8.47;;
813;SDS011;389;48.710;9.392;2022-08-21T03:07:48;13.20;;;9.07;;
813;SDS011;389;48.710;9.392;2022-08-21T03:10:14;10.43;;;8.23;;
813;SDS011;389;48.710;9.392;2022-08-21T03:12:41;10.50;;;8.00;;
813;SDS011;389;48.710;9.392;2022-08-21T03:15:08;13.30;;;8.13;;
813;SDS011;389;48.710;9.392;2022-08-21T03:17:36;10.87;;;8.47;;
813;SDS011;389;48.710;9.392;2022-08-21T03:20:03;11.83;;;8.80;;
813;SDS011;389;48.710;9.392;2022-08-21T03:22:29;10.93;;;8.07;;
813;SDS011;389;48.710;9.392;2022-08-21T03:24:55;12.37;;;8.30;;
813;SDS011;389;48.710;9.392;2022-08-21T03:27:22;15.23;;;8.90;;
813;SDS011;389;48.710;9.392;2022-08-21T03:29:50;13.03;;;8.40;;
813;SDS011;389;48.710;9.392;2022-08-21T03:32:16;12.70;;;8.37;;
813;SDS011;389;48.710;9.392;2022-08-21T03:34:41;12.53;;;8.60;;
813;SDS011;389;48.710;9.392;2022-08-21T03:37:07;13.00;;;8.10;;
813;SDS011;389;48.710;9.392;2022-08-21T03:39:34;16.03;;;8.67;;
813;SDS011;389;48.710;9.392;2022-08-21T03:42:00;13.03;;;8.83;;
813;SDS011;389;48.710;9.392;2022-08-21T03:44:26;12.83;;;8.17;;
813;SDS011;389;48.710;9.392;2022-08-21T03:46:55;11.30;;;8.03;;
813;SDS011;389;48.710;9.392;2022-08-21T03:49:21;12.90;;;9.10;;
813;SDS011;389;48.710;9.392;2022-08-21T03:51:47;15.53;;;8.30;;
813;SDS011;389;48.710;9.392;2022-08-21T03:54:13;16.87;;;8.10;;
813;SDS011;389;48.710;9.392;2022-08-21T03:56:41;12.47;;;9.40;;
813;SDS011;389;48.710;9.392;2022-08-21T03:59:07;18.73;;;8.67;;
813;SDS011;389;48.710;9.392;2022-08-21T04:01:33;12.30;;;8.77;;
813;SDS011;389;48.710;9.392;2022-08-21T04:03:59;12.27;;;9.10;;
813;SDS011;389;48.710;9.392;2022-08-21T04:06:25;14.50;;;8.97;;
813;SDS011;389;48.710;9.392;2022-08-21T04:08:51;12.50;;;9.17;;
813;SDS011;389;48.710;9.392;2022-08-21T04:11:18;12.50;;;8.83;;
813;SDS011;389;48.710;9.392;2022-08-21T04:13:44;11.30;;;8.73;;
813;SDS011;389;48.710;9.392;2022-08-21T04:16:09;11.87;;;9.00;;
813;SDS011;389;48.710;9.392;2022-08-21T04:18:35;12.60;;;9.43;;
813;SDS011;389;48.710;9.392;2022-08-21T04:21:01;12.60;;;8.87;;
813;SDS011;389;48.710;9.392;2022-08-21T04:23:28;12.37;;;9.03;;
813;SDS011;389;48.710;9.392;2022-08-21T04:25:54;12.80;;;9.00;;
813;SDS011;389;48.710;9.392;2022-08-21T04:28:22;10.70;;;8.80;;
813;SDS011;389;48.710;9.392;2022-08-21T04:30:49;15.20;;;8.97;;
813;SDS011;389;48.710;9.392;2022-08-21T04:33:15;14.13;;;8.60;;
813;SDS011;389;48.710;9.392;2022-08-21T04:35:41;11.33;;;8.70;;
813;SDS011;389;48.710;9.392;2022-08-21T04:38:07;16.17;;;9.43;;
813;SDS011;389;48.710;9.392;2022-08-21T04:40:33;12.70;;;8.73;;
813;SDS011;389;48.710;9.392;2022-08-21T04:43:01;13.30;;;9.67;;
813;SDS011;389;48.710;9.392;2022-08-21T04:45:31;12.33;;;8.70;;
813;SDS011;389;48.710;9.392;2022-08-21T04:48:06;12.00;;;8.43;;
813;SDS011;389;48.710;9.392;2022-08-21T04:53:30;12.63;;;9.00;;
813;SDS011;389;48.710;9.392;2022-08-21T04:55:56;11.90;;;8.60;;
813;SDS011;389;48.710;9.392;2022-08-21T04:58:25;11.60;;;8.53;;
813;SDS011;389;48.710;9.392;2022-08-21T05:00:53;14.63;;;8.77;;
813;SDS011;389;48.710;9.392;2022-08-21T05:03:20;15.10;;;8.80;;
813;SDS011;389;48.710;9.392;2022-08-21T05:05:47;14.30;;;8.60;;
813;SDS011;389;48.710;9.392;2022-08-21T05:08:14;12.07;;;8.83;;
813;SDS011;389;48.710;9.392;2022-08-21T05:10:44;13.87;;;9.73;;
813;SDS011;389;48.710;9.392;2022-08-21T05:13:10;13.47;;;8.93;;
813;SDS011;389;48.710;9.392;2022-08-21T05:15:37;12.60;;;9.03;;
813;SDS011;389;48.710;9.392;2022-08-21T05:18:04;11.70;;;8.63;;
813;SDS011;389;48.710;9.392;2022-08-21T05:20:31;14.30;;;9.33;;
813;SDS011;389;48.710;9.392;2022-08-21T05:22:59;13.00;;;9.57;;
813;SDS011;389;48.710;9.392;2022-08-21T05:25:25;15.77;;;9.30;;
813;SDS011;389;48.710;9.392;2022-08-21T05:27:51;14.80;;;9.77;;
813;SDS011;389;48.710;9.392;2022-08-21T05:30:18;17.30;;;9.70;;
813;SDS011;389;48.710;9.392;2022-08-21T05:32:44;12.90;;;9.70;;
813;SDS011;389;48.710;9.392;2022-08-21T05:35:10;15.07;;;9.30;;
813;SDS011;389;48.710;9.392;2022-08-21T05:37:36;11.80;;;8.93;;
813;SDS011;389;48.710;9.392;2022-08-21T05:40:02;11.33;;;8.70;;
813;SDS011;389;48.710;9.392;2022-08-21T05:42:28;10.53;;;7.90;;
813;SDS011;389;48.710;9.392;2022-08-21T05:44:54;8.70;;;7.80;;
813;SDS011;389;48.710;9.392;2022-08-21T05:47:20;7.07;;;6.47;;
813;SDS011;389;48.710;9.392;2022-08-21T05:49:45;8.20;;;6.87;;
813;SDS011;389;48.710;9.392;2022-08-21T05:52:11;6.57;;;5.97;;
813;SDS011;389;48.710;9.392;2022-08-21T05:54:37;7.57;;;5.00;;
813;SDS011;389;48.710;9.392;2022-08-21T05:57:10;5.13;;;4.63;;
813;SDS011;389;48.710;9.392;2022-08-21T05:59:35;5.03;;;4.60;;
813;SDS011;389;48.710;9.392;2022-08-21T06:02:01;4.80;;;4.40;;
813;SDS011;389;48.710;9.392;2022-08-21T06:04:27;6.77;;;3.83;;
813;SDS011;389;48.710;9.392;2022-08-21T06:06:52;5.33;;;4.30;;
813;SDS011;389;48.710;9.392;2022-08-21T06:09:18;3.87;;;3.57;;
813;SDS011;389;48.710;9.392;2022-08-21T06:11:43;4.47;;;4.07;;
813;SDS011;389;48.710;9.392;2022-08-21T06:14:09;7.60;;;4.73;;
813;SDS011;389;48.710;9.392;2022-08-21T06:16:38;3.90;;;3.60;;
813;SDS011;389;48.710;9.392;2022-08-21T06:19:03;5.20;;;4.10;;
813;SDS011;389;48.710;9.392;2022-08-21T06:21:29;5.27;;;4.77;;
813;SDS011;389;48.710;9.392;2022-08-21T06:23:54;6.03;;;5.40;;
813;SDS011;389;48.710;9.392;2022-08-21T06:26:20;4.43;;;4.03;;
813;SDS011;389;48.710;9.392;2022-08-21T06:28:47;6.57;;;4.40;;
813;SDS011;389;48.710;9.392;2022-08-21T06:31:17;4.77;;;4.27;;
813;SDS011;389;48.710;9.392;2022-08-21T06:33:44;5.30;;;4.77;;
813;SDS011;389;48.710;9.392;2022-08-21T06:36:10;5.10;;;4.60;;
813;SDS011;389;48.710;9.392;2022-08-21T06:38:36;4.27;;;3.90;;
813;SDS011;389;48.710;9.392;2022-08-21T06:41:02;4.83;;;4.23;;
813;SDS011;389;48.710;9.392;2022-08-21T06:43:28;5.07;;;4.67;;
813;SDS011;389;48.710;9.392;2022-08-21T06:45:54;8.40;;;4.40;;
813;SDS011;389;48.710;9.392;2022-08-21T06:48:20;5.13;;;4.50;;
813;SDS011;389;48.710;9.392;2022-08-21T06:50:46;5.80;;;5.10;;
813;SDS011;389;48.710;9.392;2022-08-21T06:53:13;4.80;;;4.40;;
813;SDS011;389;48.710;9.392;2022-08-21T06:55:41;4.40;;;4.10;;
813;SDS011;389;48.710;9.392;2022-08-21T06:58:07;5.33;;;4.83;;
813;SDS011;389;48.710;9.392;2022-08-21T07:00:34;5.20;;;4.80;;
813;SDS011;389;48.710;9.392;2022-08-21T07:03:03;5.40;;;4.30;;
813;SDS011;389;48.710;9.392;2022-08-21T07:05:29;8.30;;;4.90;;
813;SDS011;389;48.710;9.392;2022-08-21T07:07:55;7.90;;;5.00;;
813;SDS011;389;48.710;9.392;2022-08-21T07:10:22;5.43;;;4.93;;
813;SDS011;389;48.710;9.392;2022-08-21T07:12:51;5.10;;;4.70;;
813;SDS011;389;48.710;9.392;2022-08-21T07:15:18;5.33;;;4.83;;
813;SDS011;389;48.710;9.392;2022-08-21T07:17:44;5.20;;;4.70;;
813;SDS011;389;48.710;9.392;2022-08-21T07:20:11;5.03;;;4.50;;
813;SDS011;389;48.710;9.392;2022-08-21T07:22:36;5.13;;;4.70;;
813;SDS011;389;48.710;9.392;2022-08-21T07:25:04;10.43;;;4.43;;
813;SDS011;389;48.710;9.392;2022-08-21T07:27:30;7.70;;;5.40;;
813;SDS011;389;48.710;9.392;2022-08-21T07:29:56;5.27;;;4.87;;
813;SDS011;389;48.710;9.392;2022-08-21T07:32:23;5.43;;;4.90;;
813;SDS011;389;48.710;9.392;2022-08-21T07:34:49;6.10;;;5.50;;
813;SDS011;389;48.710;9.392;2022-08-21T07:37:14;5.33;;;4.93;;
813;SDS011;389;48.710;9.392;2022-08-21T07:39:40;6.20;;;5.23;;
813;SDS011;389;48.710;9.392;2022-08-21T07:42:06;6.30;;;5.10;;
813;SDS011;389;48.710;9.392;2022-08-21T07:44:31;7.37;;;5.70;;
813;SDS011;389;48.710;9.392;2022-08-21T07:46:59;6.00;;;5.50;;
813;SDS011;389;48.710;9.392;2022-08-21T07:49:25;5.60;;;5.10;;
813;SDS011;389;48.710;9.392;2022-08-21T07:51:50;6.80;;;5.90;;
813;SDS011;389;48.710;9.392;2022-08-21T07:54:16;6.20;;;5.60;;
813;SDS011;389;48.710;9.392;2022-08-21T07:56:46;6.30;;;5.70;;
813;SDS011;389;48.710;9.392;2022-08-21T07:59:12;5.60;;;5.10;;
813;SDS011;389;48.710;9.392;2022-08-21T08:01:37;9.77;;;5.53;;
813;SDS011;389;48.710;9.392;2022-08-21T08:04:03;9.83;;;5.57;;
813;SDS011;389;48.710;9.392;2022-08-21T08:06:29;5.80;;;5.30;;
813;SDS011;389;48.710;9.392;2022-08-21T08:08:55;6.87;;;5.93;;
813;SDS011;389;48.710;9.392;2022-08-21T08:11:21;7.00;;;5.73;;
813;SDS011;389;48.710;9.392;2022-08-21T08:13:48;6.50;;;5.90;;
813;SDS011;389;48.710;9.392;2022-08-21T08:16:15;5.93;;;5.40;;
813;SDS011;389;48.710;9.392;2022-08-21T08:18:41;6.77;;;6.00;;
813;SDS011;389;48.710;9.392;2022-08-21T08:21:08;6.27;;;5.67;;
813;SDS011;389;48.710;9.392;2022-08-21T08:23:35;6.57;;;5.40;;
813;SDS011;389;48.710;9.392;2022-08-21T08:26:00;6.47;;;5.23;;
813;SDS011;389;48.710;9.392;2022-08-21T08:28:27;7.57;;;5.70;;
813;SDS011;389;48.710;9.392;2022-08-21T08:30:53;6.10;;;5.40;;
813;SDS011;389;48.710;9.392;2022-08-21T08:33:20;6.40;;;5.17;;
813;SDS011;389;48.710;9.392;2022-08-21T08:35:47;7.30;;;5.47;;
813;SDS011;389;48.710;9.392;2022-08-21T08:38:14;8.73;;;5.83;;
813;SDS011;389;48.710;9.392;2022-08-21T08:43:28;8.60;;;5.60;;
813;SDS011;389;48.710;9.392;2022-08-21T08:45:55;6.37;;;5.77;;
813;SDS011;389;48.710;9.392;2022-08-21T08:51:30;6.20;;;5.60;;
813;SDS011;389;48.710;9.392;2022-08-21T08:54:09;7.27;;;5.40;;
813;SDS011;389;48.710;9.392;2022-08-21T08:56:39;8.43;;;5.67;;
813;SDS011;389;48.710;9.392;2022-08-21T08:59:09;8.70;;;6.40;;
813;SDS011;389;48.710;9.392;2022-08-21T09:01:43;7.57;;;5.90;;
813;SDS011;389;48.710;9.392;2022-08-21T09:04:10;7.10;;;5.63;;
813;SDS011;389;48.710;9.392;2022-08-21T09:09:58;10.87;;;6.10;;
813;SDS011;389;48.710;9.392;2022-08-21T09:15:58;7.13;;;6.03;;
813;SDS011;389;48.710;9.392;2022-08-21T09:18:31;10.27;;;6.93;;
813;SDS011;389;48.710;9.392;2022-08-21T09:29:40;9.83;;;5.53;;
813;SDS011;389;48.710;9.392;2022-08-21T09:34:54;11.33;;;5.50;;
813;SDS011;389;48.710;9.392;2022-08-21T09:37:20;9.63;;;6.00;;
813;SDS011;389;48.710;9.392;2022-08-21T09:39:45;6.27;;;5.43;;
813;SDS011;389;48.710;9.392;2022-08-21T09:42:11;7.17;;;5.10;;
813;SDS011;389;48.710;9.392;2022-08-21T09:45:05;6.60;;;5.23;;
813;SDS011;389;48.710;9.392;2022-08-21T09:47:37;7.30;;;5.70;;
813;SDS011;389;48.710;9.392;2022-08-21T09:52:44;8.37;;;5.60;;
813;SDS011;389;48.710;9.392;2022-08-21T09:55:27;9.70;;;4.90;;
813;SDS011;389;48.710;9.392;2022-08-21T09:58:16;8.40;;;5.90;;
813;SDS011;389;48.710;9.392;2022-08-21T10:00:43;6.20;;;4.83;;
813;SDS011;389;48.710;9.392;2022-08-21T10:03:17;9.10;;;5.20;;
813;SDS011;389;48.710;9.392;2022-08-21T10:08:23;7.50;;;4.90;;
813;SDS011;389;48.710;9.392;2022-08-21T10:10:55;5.60;;;4.87;;
813;SDS011;389;48.710;9.392;2022-08-21T10:16:16;5.30;;;4.40;;
813;SDS011;389;48.710;9.392;2022-08-21T10:19:09;4.57;;;4.03;;
813;SDS011;389;48.710;9.392;2022-08-21T10:22:19;5.47;;;4.67;;
813;SDS011;389;48.710;9.392;2022-08-21T10:24:58;6.37;;;4.27;;
813;SDS011;389;48.710;9.392;2022-08-21T10:30:14;7.10;;;4.53;;
813;SDS011;389;48.710;9.392;2022-08-21T10:32:51;6.40;;;4.60;;
813;SDS011;389;48.710;9.392;2022-08-21T10:35:47;5.23;;;4.20;;
813;SDS011;389;48.710;9.392;2022-08-21T10:41:27;5.20;;;4.23;;
813;SDS011;389;48.710;9.392;2022-08-21T10:47:13;5.57;;;4.13;;
813;SDS011;389;48.710;9.392;2022-08-21T10:55:04;5.77;;;4.43;;
813;SDS011;389;48.710;9.392;2022-08-21T10:57:51;5.73;;;3.80;;
813;SDS011;389;48.710;9.392;2022-08-21T11:03:25;4.53;;;3.60;;
813;SDS011;389;48.710;9.392;2022-08-21T11:06:14;5.60;;;3.53;;
813;SDS011;389;48.710;9.392;2022-08-21T11:08:57;4.57;;;3.60;;
813;SDS011;389;48.710;9.392;2022-08-21T11:11:46;6.30;;;4.30;;
813;SDS011;389;48.710;9.392;2022-08-21T11:14:39;5.27;;;4.23;;
813;SDS011;389;48.710;9.392;2022-08-21T11:17:18;5.53;;;3.93;;
813;SDS011;389;48.710;9.392;2022-08-21T11:20:06;4.57;;;4.03;;
813;SDS011;389;48.710;9.392;2022-08-21T11:22:47;4.80;;;4.27;;
813;SDS011;389;48.710;9.392;2022-08-21T11:27:47;7.80;;;4.30;;
813;SDS011;389;48.710;9.392;2022-08-21T11:30:18;6.37;;;4.23;;
813;SDS011;389;48.710;9.392;2022-08-21T11:32:57;5.00;;;4.23;;
813;SDS011;389;48.710;9.392;2022-08-21T11:46:06;4.73;;;4.10;;
813;SDS011;389;48.710;9.392;2022-08-21T11:49:02;5.03;;;3.93;;
813;SDS011;389;48.710;9.392;2022-08-21T11:54:33;4.30;;;3.90;;
813;SDS011;389;48.710;9.392;2022-08-21T11:57:29;4.30;;;3.70;;
813;SDS011;389;48.710;9.392;2022-08-21T11:59:59;5.20;;;3.87;;
813;SDS011;389;48.710;9.392;2022-08-21T12:02:33;5.10;;;3.63;;
813;SDS011;389;48.710;9.392;2022-08-21T12:05:06;6.73;;;3.80;;
813;SDS011;389;48.710;9.392;2022-08-21T12:10:07;5.00;;;3.70;;
813;SDS011;389;48.710;9.392;2022-08-21T12:12:41;6.03;;;3.47;;
813;SDS011;389;48.710;9.392;2022-08-21T12:15:15;6.70;;;3.80;;
813;SDS011;389;48.710;9.392;2022-08-21T12:17:54;4.67;;;3.83;;
813;SDS011;389;48.710;9.392;2022-08-21T12:25:44;5.17;;;4.20;;
813;SDS011;389;48.710;9.392;2022-08-21T12:28:25;6.50;;;3.90;;
813;SDS011;389;48.710;9.392;2022-08-21T12:30:52;5.27;;;4.03;;
813;SDS011;389;48.710;9.392;2022-08-21T12:33:21;4.80;;;3.80;;
813;SDS011;389;48.710;9.392;2022-08-21T12:36:06;4.27;;;3.53;;
813;SDS011;389;48.710;9.392;2022-08-21T12:38:44;4.20;;;3.57;;
813;SDS011;389;48.710;9.392;2022-08-21T12:41:21;5.83;;;3.70;;
813;SDS011;389;48.710;9.392;2022-08-21T12:43:54;3.70;;;3.40;;
813;SDS011;389;48.710;9.392;2022-08-21T12:46:29;3.20;;;2.90;;
813;SDS011;389;48.710;9.392;2022-08-21T12:49:00;4.83;;;3.33;;
813;SDS011;389;48.710;9.392;2022-08-21T12:52:00;4.90;;;3.40;;
813;SDS011;389;48.710;9.392;2022-08-21T12:54:40;3.37;;;3.00;;
813;SDS011;389;48.710;9.392;2022-08-21T12:57:08;4.97;;;3.07;;
813;SDS011;389;48.710;9.392;2022-08-21T12:59:43;4.23;;;3.40;;
813;SDS011;389;48.710;9.392;2022-08-21T13:02:19;4.00;;;3.30;;
813;SDS011;389;48.710;9.392;2022-08-21T13:04:48;4.40;;;3.20;;
813;SDS011;389;48.710;9.392;2022-08-21T13:07:16;4.80;;;3.60;;
813;SDS011;389;48.710;9.392;2022-08-21T13:09:49;3.10;;;2.80;;
813;SDS011;389;48.710;9.392;2022-08-21T13:12:18;4.13;;;2.93;;
813;SDS011;389;48.710;9.392;2022-08-21T13:14:46;3.40;;;2.53;;
813;SDS011;389;48.710;9.392;2022-08-21T13:17:19;4.07;;;2.70;;
813;SDS011;389;48.710;9.392;2022-08-21T13:19:56;3.23;;;2.93;;
813;SDS011;389;48.710;9.392;2022-08-21T13:22:28;4.53;;;3.27;;
813;SDS011;389;48.710;9.392;2022-08-21T13:24:56;3.03;;;2.77;;
813;SDS011;389;48.710;9.392;2022-08-21T13:27:34;2.80;;;2.17;;
813;SDS011;389;48.710;9.392;2022-08-21T13:30:00;3.03;;;2.63;;
813;SDS011;389;48.710;9.392;2022-08-21T13:32:33;2.50;;;2.30;;
813;SDS011;389;48.710;9.392;2022-08-21T13:35:45;2.87;;;2.33;;
813;SDS011;389;48.710;9.392;2022-08-21T13:37:59;4.10;;;2.93;;
813;SDS011;389;48.710;9.392;2022-08-21T13:40:26;2.83;;;2.53;;
813;SDS011;389;48.710;9.392;2022-08-21T13:42:55;3.10;;;2.30;;
813;SDS011;389;48.710;9.392;2022-08-21T13:45:23;2.83;;;2.63;;
813;SDS011;389;48.710;9.392;2022-08-21T13:47:56;3.53;;;2.60;;
813;SDS011;389;48.710;9.392;2022-08-21T13:50:23;2.67;;;2.47;;
813;SDS011;389;48.710;9.392;2022-08-21T13:53:00;2.67;;;2.47;;
813;SDS011;389;48.710;9.392;2022-08-21T13:55:41;2.33;;;2.13;;
813;SDS011;389;48.710;9.392;2022-08-21T13:58:08;2.30;;;2.10;;
813;SDS011;389;48.710;9.392;2022-08-21T14:00:48;2.53;;;2.27;;
813;SDS011;389;48.710;9.392;2022-08-21T14:05:58;2.40;;;2.20;;
813;SDS011;389;48.710;9.392;2022-08-21T14:11:00;2.43;;;2.00;;
813;SDS011;389;48.710;9.392;2022-08-21T14:13:38;2.50;;;2.30;;
813;SDS011;389;48.710;9.392;2022-08-21T14:16:18;2.33;;;2.13;;
813;SDS011;389;48.710;9.392;2022-08-21T14:21:34;2.63;;;2.43;;
813;SDS011;389;48.710;9.392;2022-08-21T14:24:09;4.27;;;2.50;;
813;SDS011;389;48.710;9.392;2022-08-21T14:26:43;3.00;;;2.47;;
813;SDS011;389;48.710;9.392;2022-08-21T14:29:12;2.63;;;2.30;;
813;SDS011;389;48.710;9.392;2022-08-21T14:31:39;2.97;;;2.50;;
813;SDS011;389;48.710;9.392;2022-08-21T14:34:05;2.70;;;2.50;;
813;SDS011;389;48.710;9.392;2022-08-21T14:36:31;2.83;;;2.20;;
813;SDS011;389;48.710;9.392;2022-08-21T14:38:56;2.57;;;2.37;;
813;SDS011;389;48.710;9.392;2022-08-21T14:41:23;2.77;;;2.50;;
813;SDS011;389;48.710;9.392;2022-08-21T14:43:52;4.30;;;2.93;;
813;SDS011;389;48.710;9.392;2022-08-21T14:46:29;2.83;;;2.47;;
813;SDS011;389;48.710;9.392;2022-08-21T14:48:55;3.93;;;2.83;;
813;SDS011;389;48.710;9.392;2022-08-21T14:51:21;3.80;;;2.60;;
813;SDS011;389;48.710;9.392;2022-08-21T14:53:47;3.23;;;2.50;;
813;SDS011;389;48.710;9.392;2022-08-21T14:56:13;2.70;;;2.50;;
813;SDS011;389;48.710;9.392;2022-08-21T14:58:41;2.60;;;2.40;;
813;SDS011;389;48.710;9.392;2022-08-21T15:01:09;2.83;;;2.63;;
813;SDS011;389;48.710;9.392;2022-08-21T15:03:37;3.63;;;2.70;;
813;SDS011;389;48.710;9.392;2022-08-21T15:06:03;3.30;;;2.77;;
813;SDS011;389;48.710;9.392;2022-08-21T15:08:30;2.60;;;2.40;;
813;SDS011;389;48.710;9.392;2022-08-21T15:10:57;2.43;;;2.23;;
813;SDS011;389;48.710;9.392;2022-08-21T15:13:24;2.80;;;2.60;;
813;SDS011;389;48.710;9.392;2022-08-21T15:16:36;2.97;;;2.60;;
813;SDS011;389;48.710;9.392;2022-08-21T15:19:02;3.17;;;2.87;;
813;SDS011;389;48.710;9.392;2022-08-21T15:21:33;5.63;;;2.67;;
813;SDS011;389;48.710;9.392;2022-08-21T15:23:59;2.90;;;2.30;;
813;SDS011;389;48.710;9.392;2022-08-21T15:26:35;2.90;;;2.40;;
813;SDS011;389;48.710;9.392;2022-08-21T15:29:11;2.60;;;2.40;;
813;SDS011;389;48.710;9.392;2022-08-21T15:31:50;5.30;;;2.80;;
813;SDS011;389;48.710;9.392;2022-08-21T15:34:24;2.60;;;2.40;;
813;SDS011;389;48.710;9.392;2022-08-21T15:37:01;3.03;;;2.60;;
813;SDS011;389;48.710;9.392;2022-08-21T15:39:27;3.77;;;2.70;;
813;SDS011;389;48.710;9.392;2022-08-21T15:41:53;3.67;;;3.00;;
813;SDS011;389;48.710;9.392;2022-08-21T15:44:19;5.47;;;2.80;;
813;SDS011;389;48.710;9.392;2022-08-21T15:46:46;3.50;;;2.90;;
813;SDS011;389;48.710;9.392;2022-08-21T15:49:12;8.73;;;3.03;;
813;SDS011;389;48.710;9.392;2022-08-21T15:51:37;3.47;;;3.10;;
813;SDS011;389;48.710;9.392;2022-08-21T15:54:03;3.57;;;2.87;;
813;SDS011;389;48.710;9.392;2022-08-21T15:56:33;4.90;;;2.67;;
813;SDS011;389;48.710;9.392;2022-08-21T15:59:02;3.97;;;3.20;;
813;SDS011;389;48.710;9.392;2022-08-21T16:01:30;2.90;;;2.70;;
813;SDS011;389;48.710;9.392;2022-08-21T16:03:56;3.07;;;2.77;;
813;SDS011;389;48.710;9.392;2022-08-21T16:06:22;3.20;;;2.90;;
813;SDS011;389;48.710;9.392;2022-08-21T16:08:48;5.00;;;2.67;;
813;SDS011;389;48.710;9.392;2022-08-21T16:11:14;3.10;;;2.77;;
813;SDS011;389;48.710;9.392;2022-08-21T16:13:47;4.37;;;2.60;;
813;SDS011;389;48.710;9.392;2022-08-21T16:16:15;3.50;;;3.20;;
813;SDS011;389;48.710;9.392;2022-08-21T16:18:43;3.50;;;2.80;;
813;SDS011;389;48.710;9.392;2022-08-21T16:21:09;4.17;;;3.47;;
813;SDS011;389;48.710;9.392;2022-08-21T16:23:35;4.93;;;2.60;;
813;SDS011;389;48.710;9.392;2022-08-21T16:26:04;3.47;;;3.13;;
813;SDS011;389;48.710;9.392;2022-08-21T16:28:34;3.20;;;2.90;;
813;SDS011;389;48.710;9.392;2022-08-21T16:31:03;3.27;;;2.97;;
813;SDS011;389;48.710;9.392;2022-08-21T16:33:31;2.83;;;2.60;;
813;SDS011;389;48.710;9.392;2022-08-21T16:36:12;4.00;;;3.27;;
813;SDS011;389;48.710;9.392;2022-08-21T16:38:38;4.27;;;2.80;;
813;SDS011;389;48.710;9.392;2022-08-21T16:41:08;3.33;;;2.80;;
813;SDS011;389;48.710;9.392;2022-08-21T16:43:38;3.80;;;2.93;;
813;SDS011;389;48.710;9.392;2022-08-21T16:46:07;3.43;;;2.80;;
813;SDS011;389;48.710;9.392;2022-08-21T16:48:35;3.70;;;2.80;;
813;SDS011;389;48.710;9.392;2022-08-21T16:51:05;3.20;;;2.90;;
813;SDS011;389;48.710;9.392;2022-08-21T16:53:32;3.73;;;3.10;;
813;SDS011;389;48.710;9.392;2022-08-21T16:55:58;7.30;;;3.10;;
813;SDS011;389;48.710;9.392;2022-08-21T16:58:31;4.23;;;3.07;;
813;SDS011;389;48.710;9.392;2022-08-21T17:00:59;3.20;;;2.90;;
813;SDS011;389;48.710;9.392;2022-08-21T17:03:29;3.83;;;3.50;;
813;SDS011;389;48.710;9.392;2022-08-21T17:05:58;6.03;;;3.70;;
813;SDS011;389;48.710;9.392;2022-08-21T17:08:24;3.57;;;3.27;;
813;SDS011;389;48.710;9.392;2022-08-21T17:10:50;3.10;;;2.73;;
813;SDS011;389;48.710;9.392;2022-08-21T17:13:16;3.07;;;2.77;;
813;SDS011;389;48.710;9.392;2022-08-21T17:15:43;4.40;;;2.90;;
813;SDS011;389;48.710;9.392;2022-08-21T17:18:10;3.07;;;2.77;;